Time;durP1;ratioP1;P1;durP2;ratioP2;P2;SDS_P1;SDS_P2;PMS_P1;PMS_P2;Temp;Humidity;BMP_temperature;BMP_pressure;BME280_temperature;BME280_humidity;BME280_pressure;Samples;Min_cycle;Max_cycle;Signal;HPM_P1;HPM_P2
2023/10/31 00:04:58;;;;;;;4.60;1.92;;;16.60;81.00;;;;;;10410436;28;20021;-56
2023/10/31 00:09:59;;;;;;;3.08;2.15;;;16.60;81.00;;;;;;10410389;28;21293;-58
2023/10/31 00:15:00;;;;;;;4.32;1.67;;;16.60;81.00;;;;;;10410149;28;20423;-57
2023/10/31 00:20:00;;;;;;;2.65;1.30;;;16.50;80.80;;;;;;10410335;28;20025;-58
2023/10/31 00:25:01;;;;;;;2.60;1.58;;;16.50;80.80;;;;;;10409489;28;20026;-58
2023/10/31 00:30:03;;;;;;;1.90;1.45;;;16.50;80.90;;;;;;10408599;28;20038;-58
2023/10/31 00:35:04;;;;;;;3.55;1.45;;;16.50;80.70;;;;;;10409158;28;20369;-58
2023/10/31 00:40:06;;;;;;;5.65;1.77;;;16.50;81.40;;;;;;10409444;28;20032;-58
2023/10/31 00:45:08;;;;;;;2.42;1.52;;;16.60;83.50;;;;;;10409014;28;20025;-58
2023/10/31 00:50:09;;;;;;;2.47;1.17;;;16.60;82.90;;;;;;10409290;28;20033;-58
2023/10/31 00:55:10;;;;;;;2.50;1.38;;;16.60;82.40;;;;;;10408834;28;20034;-58
2023/10/31 01:00:11;;;;;;;2.15;1.17;;;16.60;82.20;;;;;;10408914;28;20029;-58
2023/10/31 01:05:12;;;;;;;3.50;1.45;;;16.70;82.00;;;;;;10408160;28;20038;-57
2023/10/31 01:10:12;;;;;;;2.40;1.42;;;16.60;81.80;;;;;;10408578;28;20030;-58
2023/10/31 01:15:13;;;;;;;3.63;1.42;;;16.60;81.90;;;;;;10408424;28;20037;-58
2023/10/31 01:20:14;;;;;;;2.15;1.38;;;16.60;81.80;;;;;;10408564;28;20030;-58
2023/10/31 01:25:15;;;;;;;3.47;1.92;;;16.60;82.10;;;;;;10408074;28;20029;-58
2023/10/31 01:30:16;;;;;;;2.25;1.60;;;16.60;81.70;;;;;;10425859;28;20128;-58
2023/10/31 01:35:16;;;;;;;3.95;1.80;;;16.60;81.70;;;;;;10415982;28;20422;-58
2023/10/31 01:40:17;;;;;;;2.58;1.77;;;16.60;81.70;;;;;;10416215;28;20049;-58
2023/10/31 01:45:18;;;;;;;3.75;1.67;;;16.60;81.70;;;;;;10415625;28;20084;-58
2023/10/31 01:50:19;;;;;;;2.40;1.67;;;16.60;81.60;;;;;;10415958;28;20128;-58
2023/10/31 01:55:21;;;;;;;3.20;1.38;;;16.50;81.50;;;;;;10415404;28;20033;-58
2023/10/31 02:00:22;;;;;;;3.50;1.80;;;16.60;81.60;;;;;;10415827;28;20087;-58
2023/10/31 02:05:23;;;;;;;3.08;2.08;;;16.50;81.40;;;;;;10414913;28;20033;-58
2023/10/31 02:10:24;;;;;;;3.63;1.83;;;16.50;81.40;;;;;;10413780;28;20032;-58
2023/10/31 02:15:24;;;;;;;2.60;1.60;;;16.50;81.40;;;;;;10414672;28;20582;-58
2023/10/31 02:20:25;;;;;;;2.17;1.73;;;16.50;81.20;;;;;;10414917;28;20645;-56
2023/10/31 02:25:26;;;;;;;3.33;1.67;;;16.50;81.30;;;;;;10414357;28;20500;-58
2023/10/31 02:30:27;;;;;;;4.40;2.28;;;16.50;81.20;;;;;;10427044;28;20444;-58
2023/10/31 02:35:28;;;;;;;3.47;1.70;;;16.50;81.10;;;;;;10413914;28;20025;-58
2023/10/31 02:40:28;;;;;;;2.90;1.70;;;16.50;81.10;;;;;;10412831;28;20095;-58
2023/10/31 02:45:29;;;;;;;3.10;2.00;;;16.50;81.20;;;;;;10413330;28;20055;-58
2023/10/31 02:50:30;;;;;;;2.60;1.52;;;16.50;81.20;;;;;;10413689;28;20033;-58
2023/10/31 02:55:30;;;;;;;2.80;1.85;;;16.50;81.10;;;;;;10413076;28;20086;-58
2023/10/31 03:00:31;;;;;;;3.13;1.55;;;16.50;81.10;;;;;;10413299;28;20025;-58
2023/10/31 03:05:32;;;;;;;3.13;1.80;;;16.50;81.10;;;;;;10411509;28;20060;-58
2023/10/31 03:10:33;;;;;;;2.40;1.75;;;16.40;81.10;;;;;;10412783;28;20083;-58
2023/10/31 03:15:33;;;;;;;4.13;2.42;;;16.40;81.10;;;;;;10412980;28;20029;-58
2023/10/31 03:20:34;;;;;;;3.53;1.70;;;16.40;81.10;;;;;;10411988;28;20030;-58
2023/10/31 03:25:35;;;;;;;2.80;1.98;;;16.40;81.00;;;;;;10412399;28;20056;-58
2023/10/31 03:30:35;;;;;;;2.33;1.63;;;16.40;81.00;;;;;;10411933;28;20522;-58
2023/10/31 03:35:36;;;;;;;4.35;1.90;;;16.40;81.00;;;;;;10411712;28;20108;-58
2023/10/31 03:40:37;;;;;;;3.75;1.80;;;16.40;81.00;;;;;;10411302;28;20420;-58
2023/10/31 03:45:37;;;;;;;5.28;2.00;;;16.40;81.00;;;;;;10410101;28;20021;-58
2023/10/31 03:50:38;;;;;;;3.42;1.30;;;16.40;81.00;;;;;;10410773;28;20029;-58
2023/10/31 03:55:39;;;;;;;3.30;2.03;;;16.40;80.90;;;;;;10410944;28;20037;-58
2023/10/31 04:00:41;;;;;;;2.53;1.58;;;16.40;80.90;;;;;;10410619;28;20032;-58
2023/10/31 04:05:41;;;;;;;2.35;1.65;;;16.40;80.90;;;;;;10410990;28;20449;-58
2023/10/31 04:10:42;;;;;;;3.20;1.60;;;16.30;80.90;;;;;;10409893;28;20038;-58
2023/10/31 04:15:43;;;;;;;3.42;1.70;;;16.30;80.90;;;;;;10410465;28;20465;-58
2023/10/31 04:20:43;;;;;;;3.50;1.45;;;16.30;81.50;;;;;;10408205;28;20029;-58
2023/10/31 04:25:44;;;;;;;3.58;1.92;;;16.30;80.90;;;;;;10409836;28;20043;-58
2023/10/31 04:30:45;;;;;;;2.70;1.77;;;16.30;80.90;;;;;;10421718;28;20509;-57
2023/10/31 04:35:45;;;;;;;3.30;1.80;;;16.30;80.90;;;;;;10412023;28;20584;-55
2023/10/31 04:40:46;;;;;;;5.97;1.63;;;16.30;81.00;;;;;;10404059;28;20499;-54
2023/10/31 04:45:47;;;;;;;2.35;1.30;;;16.40;81.00;;;;;;10405946;28;20082;-55
2023/10/31 04:50:47;;;;;;;3.58;1.83;;;16.50;81.20;;;;;;10403974;28;20083;-55
2023/10/31 04:55:48;;;;;;;2.72;1.50;;;16.50;81.30;;;;;;10404820;28;20026;-55
2023/10/31 05:00:49;;;;;;;5.72;2.20;;;16.50;81.10;;;;;;10403900;28;20049;-56
2023/10/31 05:05:50;;;;;;;3.45;1.60;;;16.50;81.10;;;;;;10406127;28;20524;-55
2023/10/31 05:10:50;;;;;;;2.67;1.60;;;16.50;80.80;;;;;;10404488;28;20036;-56
2023/10/31 05:15:51;;;;;;;2.28;1.27;;;16.50;81.00;;;;;;10407031;28;20808;-55
2023/10/31 05:20:52;;;;;;;2.63;1.60;;;16.40;81.00;;;;;;10420476;28;20582;-55
2023/10/31 05:25:52;;;;;;;2.35;1.20;;;16.40;81.10;;;;;;10411301;28;20487;-56
2023/10/31 05:30:53;;;;;;;2.20;1.33;;;16.40;81.10;;;;;;10420809;28;20476;-57
2023/10/31 05:35:54;;;;;;;2.50;1.35;;;16.40;81.10;;;;;;10408211;28;20504;-55
2023/10/31 05:40:55;;;;;;;4.10;1.48;;;16.40;81.20;;;;;;10402929;28;20499;-56
2023/10/31 05:45:55;;;;;;;3.08;1.70;;;16.50;80.90;;;;;;10406065;28;20044;-56
2023/10/31 05:50:56;;;;;;;2.13;1.38;;;16.70;80.80;;;;;;10404332;28;20446;-58
2023/10/31 05:55:57;;;;;;;7.20;2.03;;;16.90;79.30;;;;;;10404743;28;20041;-56
2023/10/31 06:00:57;;;;;;;4.63;1.52;;;17.10;78.70;;;;;;10404926;28;20029;-57
2023/10/31 06:05:59;;;;;;;5.75;1.55;;;17.40;78.30;;;;;;10415831;28;20021;-56
2023/10/31 06:11:00;;;;;;;4.00;1.85;;;17.50;78.00;;;;;;10422035;28;20025;-56
2023/10/31 06:16:01;;;;;;;12.05;1.92;;;17.60;78.00;;;;;;10426352;28;20033;-58
2023/10/31 06:21:02;;;;;;;15.95;2.80;;;17.60;78.40;;;;;;10423654;28;20117;-57
2023/10/31 06:26:03;;;;;;;10.30;3.03;;;17.60;78.70;;;;;;10427905;28;20029;-58
2023/10/31 06:31:04;;;;;;;4.68;2.13;;;17.60;78.60;;;;;;10438553;28;20086;-57
2023/10/31 06:36:06;;;;;;;8.25;1.50;;;17.50;79.20;;;;;;10414970;28;20037;-56
2023/10/31 06:41:07;;;;;;;14.40;2.95;;;17.50;79.40;;;;;;10413464;28;20500;-56
2023/10/31 06:46:09;;;;;;;11.70;2.17;;;17.40;79.90;;;;;;10418119;28;20458;-57
2023/10/31 06:51:09;;;;;;;12.00;2.10;;;17.40;79.50;;;;;;10412206;28;20041;-57
2023/10/31 06:56:10;;;;;;;9.05;1.85;;;17.30;80.00;;;;;;10412323;28;20025;-57
2023/10/31 07:01:12;;;;;;;8.95;2.42;;;17.20;80.00;;;;;;10411343;28;20029;-57
2023/10/31 07:06:13;;;;;;;9.57;2.08;;;17.20;80.10;;;;;;10412913;28;20033;-57
2023/10/31 07:11:13;;;;;;;10.15;2.20;;;17.20;80.10;;;;;;10411121;28;20044;-56
2023/10/31 07:16:14;;;;;;;21.25;3.30;;;17.20;80.20;;;;;;10419761;28;20029;-62
2023/10/31 07:21:15;;;;;;;14.32;2.92;;;17.10;79.60;;;;;;10426290;28;20026;-58
2023/10/31 07:26:16;;;;;;;12.13;2.13;;;17.00;79.70;;;;;;10411378;28;20055;-58
2023/10/31 07:31:16;;;;;;;7.82;2.67;;;17.10;79.70;;;;;;10423332;28;20432;-58
2023/10/31 07:36:17;;;;;;;10.90;2.50;;;17.00;79.70;;;;;;10411587;28;20112;-58
2023/10/31 07:41:18;;;;;;;8.98;1.98;;;17.00;79.80;;;;;;10409875;28;20022;-57
2023/10/31 07:46:19;;;;;;;6.78;2.10;;;17.00;79.80;;;;;;10411641;28;20041;-57
2023/10/31 07:51:19;;;;;;;9.68;2.45;;;17.00;79.90;;;;;;10411013;28;20032;-58
2023/10/31 07:56:22;;;;;;;6.80;1.98;;;17.00;79.90;;;;;;10411110;28;20029;-57
2023/10/31 08:01:24;;;;;;;8.35;2.90;;;17.20;79.00;;;;;;10412969;28;20053;-57
2023/10/31 08:06:25;;;;;;;10.68;2.65;;;17.10;79.30;;;;;;10424863;28;20017;-56
2023/10/31 08:11:26;;;;;;;4.00;1.80;;;17.00;79.90;;;;;;10415131;28;20091;-57
2023/10/31 08:16:27;;;;;;;6.97;3.30;;;17.00;80.10;;;;;;10410284;28;20037;-57
2023/10/31 08:21:33;;;;;;;6.28;2.20;;;17.00;80.10;;;;;;10422623;28;20029;-56
2023/10/31 08:26:34;;;;;;;8.10;1.95;;;16.90;80.10;;;;;;10418360;28;20037;-57
2023/10/31 08:31:35;;;;;;;6.65;1.42;;;16.90;80.20;;;;;;10422121;28;20050;-56
2023/10/31 08:36:35;;;;;;;8.95;1.88;;;16.90;80.40;;;;;;10409296;28;20038;-55
2023/10/31 08:41:38;;;;;;;4.25;1.58;;;16.90;80.40;;;;;;10408564;28;20033;-57
2023/10/31 08:46:39;;;;;;;4.45;1.60;;;16.90;80.50;;;;;;10410749;28;20026;-57
2023/10/31 08:51:40;;;;;;;7.45;2.72;;;16.90;80.60;;;;;;10408638;28;20029;-57
2023/10/31 08:56:41;;;;;;;6.45;1.63;;;16.80;80.60;;;;;;10408666;28;20078;-57
2023/10/31 09:01:41;;;;;;;4.40;1.85;;;16.90;80.70;;;;;;10408594;28;20037;-57
2023/10/31 09:06:42;;;;;;;7.00;2.42;;;16.90;80.60;;;;;;10407895;28;20013;-57
2023/10/31 09:11:43;;;;;;;2.53;1.20;;;16.90;80.90;;;;;;10408154;28;20040;-57
2023/10/31 09:16:43;;;;;;;2.72;1.40;;;16.80;80.90;;;;;;10408345;28;20022;-57
2023/10/31 09:21:44;;;;;;;6.40;2.10;;;16.80;80.80;;;;;;10407985;28;20041;-56
2023/10/31 09:26:45;;;;;;;5.53;1.58;;;16.90;80.80;;;;;;10410392;28;20017;-57
2023/10/31 09:31:47;;;;;;;3.40;1.40;;;16.90;80.70;;;;;;10423182;28;20046;-57
2023/10/31 09:36:47;;;;;;;5.57;1.77;;;16.80;81.00;;;;;;10419797;28;20022;-57
2023/10/31 09:41:48;;;;;;;4.13;1.05;;;16.80;81.00;;;;;;10404974;28;20084;-58
2023/10/31 09:46:51;;;;;;;1.63;0.98;;;16.80;81.00;;;;;;10404638;28;20480;-59
2023/10/31 09:51:52;;;;;;;4.68;1.38;;;16.90;81.00;;;;;;10410920;28;20037;-57
2023/10/31 09:56:53;;;;;;;4.45;1.20;;;16.90;81.10;;;;;;10414258;28;20740;-57
2023/10/31 10:01:54;;;;;;;2.50;1.35;;;16.90;81.00;;;;;;10413964;28;20112;-57
2023/10/31 10:07:02;;;;;;;3.08;1.23;;;16.80;81.00;;;;;;10414246;28;20040;-57
2023/10/31 10:12:05;;;;;;;2.38;1.10;;;16.90;81.30;;;;;;10413491;28;20028;-57
2023/10/31 10:17:20;;;;;;;5.78;1.60;;;16.90;81.20;;;;;;10413645;28;20037;-57
2023/10/31 10:22:27;;;;;;;3.83;1.70;;;17.00;81.10;;;;;;10412549;28;20388;-57
2023/10/31 10:27:28;;;;;;;4.70;1.40;;;17.00;81.60;;;;;;10413386;28;20056;-56
2023/10/31 10:32:28;;;;;;;2.97;1.50;;;16.90;81.00;;;;;;10424497;28;20050;-56
2023/10/31 10:37:30;;;;;;;4.28;1.33;;;16.90;81.00;;;;;;10412974;28;20030;-55
2023/10/31 10:42:49;;;;;;;2.50;1.25;;;16.90;81.00;;;;;;10412210;28;20021;-57
2023/10/31 10:47:52;;;;;;;2.47;0.95;;;16.90;81.00;;;;;;10412577;28;20377;-56
2023/10/31 10:53:26;;;;;;;3.28;1.50;;;16.90;81.00;;;;;;10411999;28;20061;-57
2023/10/31 10:58:41;;;;;;;3.50;1.42;;;16.80;80.90;;;;;;10412051;28;20057;-57
2023/10/31 11:03:43;;;;;;;3.00;1.00;;;16.80;81.00;;;;;;10410637;28;20025;-57
2023/10/31 11:08:45;;;;;;;4.45;1.73;;;16.80;81.00;;;;;;10411746;28;20098;-56
2023/10/31 11:13:46;;;;;;;3.38;1.35;;;16.80;81.00;;;;;;10410301;28;20034;-57
2023/10/31 11:18:47;;;;;;;2.45;1.23;;;16.80;80.90;;;;;;10411228;28;20026;-56
2023/10/31 11:24:00;;;;;;;2.05;1.40;;;16.80;80.90;;;;;;10409403;28;20036;-56
2023/10/31 11:29:08;;;;;;;3.03;1.45;;;16.80;80.90;;;;;;10417293;28;20123;-56
2023/10/31 11:34:09;;;;;;;4.72;1.50;;;16.80;80.90;;;;;;10414913;28;20068;-56
2023/10/31 11:39:13;;;;;;;4.00;1.67;;;16.80;80.90;;;;;;10410347;28;20048;-56
2023/10/31 11:44:16;;;;;;;3.08;1.63;;;16.80;80.90;;;;;;10410454;28;20055;-56
2023/10/31 11:49:17;;;;;;;3.10;2.05;;;16.80;81.00;;;;;;10410650;28;20428;-60
2023/10/31 11:54:17;;;;;;;3.03;1.80;;;16.80;81.00;;;;;;10409263;28;20030;-60
2023/10/31 11:59:18;;;;;;;3.92;1.83;;;16.80;81.20;;;;;;10409649;28;20041;-60
2023/10/31 12:04:23;;;;;;;4.53;2.72;;;16.90;81.00;;;;;;10392579;28;20397;-61
2023/10/31 12:09:24;;;;;;;3.60;2.20;;;16.90;80.90;;;;;;10410210;28;20031;-61
2023/10/31 12:14:25;;;;;;;3.15;1.70;;;17.00;80.80;;;;;;10408694;28;20034;-57
2023/10/31 12:19:26;;;;;;;3.45;2.03;;;16.80;80.70;;;;;;10409056;28;20067;-56
2023/10/31 12:24:27;;;;;;;4.10;2.03;;;16.80;80.80;;;;;;10408645;28;20033;-57
2023/10/31 12:29:27;;;;;;;3.33;2.40;;;16.80;80.90;;;;;;10408899;28;20400;-56
2023/10/31 12:34:30;;;;;;;4.90;1.92;;;16.70;80.90;;;;;;10408097;28;20124;-57
2023/10/31 12:39:31;;;;;;;3.38;1.85;;;16.70;80.90;;;;;;10406352;28;20068;-57
2023/10/31 12:44:32;;;;;;;5.20;2.00;;;16.70;80.90;;;;;;10406616;28;20044;-57
2023/10/31 12:49:33;;;;;;;3.53;2.05;;;16.70;81.00;;;;;;10407397;28;20029;-57
2023/10/31 12:54:36;;;;;;;4.15;2.72;;;16.70;81.50;;;;;;10407746;28;20317;-56
2023/10/31 12:59:38;;;;;;;3.95;2.42;;;16.70;81.00;;;;;;10408349;28;20033;-57
2023/10/31 13:04:38;;;;;;;3.47;2.25;;;16.60;81.00;;;;;;10406832;28;20025;-57
2023/10/31 13:09:41;;;;;;;5.82;3.05;;;16.70;81.00;;;;;;10406330;28;20037;-57
2023/10/31 13:14:41;;;;;;;4.90;2.45;;;16.70;81.00;;;;;;10407573;28;20619;-56
2023/10/31 13:19:42;;;;;;;8.63;2.80;;;16.70;80.70;;;;;;10407917;28;20029;-59
2023/10/31 13:24:43;;;;;;;25.92;6.03;;;16.80;80.70;;;;;;10410673;28;20029;-56
2023/10/31 13:29:45;;;;;;;37.65;5.22;;;16.80;81.60;;;;;;10416939;28;20049;-56
2023/10/31 13:34:46;;;;;;;47.45;8.73;;;16.80;81.40;;;;;;10417189;28;20044;-56
2023/10/31 13:39:47;;;;;;;22.20;4.80;;;16.80;82.20;;;;;;10414816;28;20030;-57
2023/10/31 13:44:48;;;;;;;31.23;6.00;;;16.90;81.30;;;;;;10412817;28;20032;-56
2023/10/31 13:49:49;;;;;;;25.08;5.40;;;16.90;81.40;;;;;;10415959;28;20033;-55
2023/10/31 13:54:49;;;;;;;22.27;5.35;;;17.00;81.10;;;;;;10414519;28;20037;-55
2023/10/31 13:59:51;;;;;;;21.75;5.90;;;17.00;81.50;;;;;;10414071;28;20082;-56
2023/10/31 14:04:51;;;;;;;22.55;6.40;;;17.10;81.30;;;;;;10413622;28;20578;-56
2023/10/31 14:09:53;;;;;;;21.48;5.55;;;17.00;82.00;;;;;;10415219;28;20059;-56
2023/10/31 14:14:53;;;;;;;34.88;7.60;;;17.20;82.10;;;;;;10387373;28;20512;-57
2023/10/31 14:19:54;;;;;;;17.17;6.47;;;17.10;81.90;;;;;;10414539;28;20036;-57
2023/10/31 14:24:55;;;;;;;26.35;5.85;;;17.20;81.90;;;;;;10414349;28;20094;-57
2023/10/31 14:29:56;;;;;;;26.65;6.10;;;17.20;81.80;;;;;;10416356;28;20056;-57
2023/10/31 14:34:56;;;;;;;23.55;6.05;;;17.20;82.10;;;;;;10414041;28;20067;-55
2023/10/31 14:39:57;;;;;;;31.77;6.30;;;17.20;82.70;;;;;;10414272;28;20030;-57
2023/10/31 14:45:00;;;;;;;36.53;7.55;;;17.20;82.10;;;;;;10413030;28;20648;-56
2023/10/31 14:50:00;;;;;;;18.13;5.53;;;17.10;82.90;;;;;;10410038;28;20088;-57
2023/10/31 14:55:01;;;;;;;30.30;7.40;;;17.10;82.70;;;;;;10412938;28;20055;-61
2023/10/31 15:00:03;;;;;;;33.85;9.15;;;17.10;82.20;;;;;;10413078;28;20033;-61
2023/10/31 15:05:04;;;;;;;31.08;8.48;;;17.00;82.00;;;;;;10444810;28;20473;-58
2023/10/31 15:10:05;;;;;;;32.22;6.97;;;17.00;82.00;;;;;;10413219;28;20544;-58
2023/10/31 15:15:06;;;;;;;36.17;7.90;;;17.00;82.00;;;;;;10381120;28;20038;-58
2023/10/31 15:20:12;;;;;;;32.60;7.15;;;17.10;82.10;;;;;;10412304;28;20064;-57
2023/10/31 15:25:13;;;;;;;27.75;7.70;;;17.10;81.90;;;;;;10399076;28;20022;-57
2023/10/31 15:30:13;;;;;;;63.10;35.63;;;17.00;81.50;;;;;;10412696;28;20060;-58
2023/10/31 15:35:14;;;;;;;69.53;35.35;;;17.00;80.80;;;;;;10410760;28;20031;-58
2023/10/31 15:40:15;;;;;;;182.38;124.55;;;17.10;80.60;;;;;;10411255;28;20033;-58
2023/10/31 15:45:16;;;;;;;214.15;121.97;;;17.20;80.00;;;;;;10410356;28;20021;-58
2023/10/31 15:50:16;;;;;;;182.60;103.93;;;17.30;79.70;;;;;;10410447;28;20033;-58
2023/10/31 15:55:17;;;;;;;144.45;76.82;;;17.30;79.90;;;;;;10411071;28;20025;-59
2023/10/31 16:00:18;;;;;;;121.53;67.95;;;17.30;78.60;;;;;;10409948;28;20044;-57
2023/10/31 16:05:18;;;;;;;125.35;69.20;;;17.50;78.60;;;;;;10409310;28;20029;-58
2023/10/31 16:10:19;;;;;;;106.95;60.15;;;17.50;78.20;;;;;;10409060;28;20026;-57
2023/10/31 16:15:20;;;;;;;107.88;62.20;;;17.50;78.50;;;;;;10409393;28;20395;-58
2023/10/31 16:20:21;;;;;;;111.90;62.10;;;17.40;78.60;;;;;;10408979;28;20029;-58
2023/10/31 16:25:22;;;;;;;113.00;61.10;;;17.40;78.90;;;;;;10406923;28;20036;-58
2023/10/31 16:30:22;;;;;;;101.47;56.75;;;17.30;79.40;;;;;;10407163;28;20497;-58
2023/10/31 16:35:23;;;;;;;92.20;57.08;;;17.30;81.90;;;;;;10409668;28;20109;-58
2023/10/31 16:40:25;;;;;;;98.68;51.78;;;17.40;84.30;;;;;;10409181;28;20025;-58
2023/10/31 16:45:26;;;;;;;92.82;49.20;;;17.30;81.50;;;;;;10408567;28;20087;-57
2023/10/31 16:50:29;;;;;;;95.32;49.35;;;17.20;81.30;;;;;;10405790;28;20025;-58
2023/10/31 16:55:30;;;;;;;85.45;50.28;;;17.20;81.50;;;;;;10405654;28;20032;-57
2023/10/31 17:00:30;;;;;;;81.13;46.60;;;17.10;81.50;;;;;;10391710;28;20040;-58
2023/10/31 17:05:31;;;;;;;79.13;46.20;;;17.10;81.40;;;;;;10404916;28;20492;-58
2023/10/31 17:10:32;;;;;;;76.80;43.47;;;17.10;81.30;;;;;;10404752;28;20416;-57
2023/10/31 17:15:33;;;;;;;77.88;44.15;;;17.10;81.30;;;;;;10405449;28;20048;-57
2023/10/31 17:20:34;;;;;;;84.32;43.75;;;17.00;81.10;;;;;;10405374;28;20034;-56
2023/10/31 17:25:34;;;;;;;78.05;43.50;;;17.20;83.20;;;;;;10405258;28;20491;-57
2023/10/31 17:30:35;;;;;;;72.85;40.75;;;17.40;83.10;;;;;;10417365;28;20381;-56
2023/10/31 17:35:36;;;;;;;71.43;42.60;;;17.50;82.40;;;;;;10405380;28;20033;-56
2023/10/31 17:40:37;;;;;;;75.95;44.38;;;17.50;82.00;;;;;;10404871;28;20215;-56
2023/10/31 17:45:37;;;;;;;73.13;39.53;;;17.50;82.00;;;;;;10404001;28;20026;-57
2023/10/31 17:50:39;;;;;;;78.82;40.55;;;17.40;82.10;;;;;;10403923;28;20037;-57
2023/10/31 17:55:41;;;;;;;67.57;39.97;;;17.30;82.20;;;;;;10403483;28;20030;-56
2023/10/31 18:00:42;;;;;;;73.13;37.60;;;17.20;82.80;;;;;;10403982;28;20037;-57
2023/10/31 18:05:42;;;;;;;71.80;38.45;;;17.40;82.30;;;;;;10400224;28;20518;-56
2023/10/31 18:10:43;;;;;;;71.97;34.22;;;17.30;82.00;;;;;;10400757;28;20512;-57
2023/10/31 18:15:44;;;;;;;68.57;35.97;;;17.20;82.40;;;;;;10411838;28;20029;-56
2023/10/31 18:20:45;;;;;;;64.90;34.72;;;17.10;82.40;;;;;;10407313;28;20029;-56
2023/10/31 18:25:46;;;;;;;63.10;34.78;;;17.10;82.50;;;;;;10410392;28;20484;-56
2023/10/31 18:30:46;;;;;;;58.85;34.67;;;17.00;82.50;;;;;;10410423;28;20053;-57
2023/10/31 18:35:47;;;;;;;61.03;36.33;;;17.00;82.30;;;;;;10413624;28;20033;-56
2023/10/31 18:40:48;;;;;;;65.35;29.67;;;17.00;82.50;;;;;;10423997;28;20540;-56
2023/10/31 18:45:49;;;;;;;64.45;33.13;;;17.00;82.20;;;;;;10428523;28;20036;-56
2023/10/31 18:50:49;;;;;;;56.47;30.05;;;17.10;82.30;;;;;;10425530;28;20070;-57
2023/10/31 18:55:50;;;;;;;55.00;28.83;;;17.10;82.30;;;;;;10428049;28;20033;-57
2023/10/31 19:00:51;;;;;;;42.25;27.40;;;17.00;82.40;;;;;;10416528;28;20033;-56
2023/10/31 19:05:51;;;;;;;49.70;29.35;;;17.00;82.30;;;;;;10452671;28;20032;-58
2023/10/31 19:10:53;;;;;;;55.00;29.48;;;17.00;82.40;;;;;;10421590;28;20029;-57
2023/10/31 19:15:54;;;;;;;48.10;27.50;;;17.10;82.20;;;;;;10409649;28;20060;-57
2023/10/31 19:20:55;;;;;;;46.17;27.65;;;17.00;82.60;;;;;;10405218;28;20493;-56
2023/10/31 19:25:55;;;;;;;50.80;30.20;;;17.00;82.00;;;;;;10402766;28;20029;-57
2023/10/31 19:30:56;;;;;;;50.65;28.25;;;17.00;82.60;;;;;;10409894;28;20041;-56
2023/10/31 19:35:57;;;;;;;47.47;29.02;;;16.90;82.90;;;;;;10408624;28;20112;-56
2023/10/31 19:40:58;;;;;;;43.47;25.83;;;16.90;83.00;;;;;;10407823;28;20148;-56
2023/10/31 19:46:03;;;;;;;41.08;25.98;;;16.90;83.00;;;;;;10391913;28;20041;-56
2023/10/31 19:51:06;;;;;;;44.42;24.60;;;16.80;83.10;;;;;;10385912;28;20029;-56
2023/10/31 19:56:15;;;;;;;43.97;25.65;;;16.80;83.10;;;;;;10407496;28;20487;-56
2023/10/31 20:01:16;;;;;;;42.50;24.27;;;16.80;83.20;;;;;;10404885;28;20033;-56
2023/10/31 20:06:17;;;;;;;42.50;25.02;;;16.80;83.10;;;;;;10413450;28;20112;-57
2023/10/31 20:11:18;;;;;;;35.55;22.73;;;16.80;82.90;;;;;;10422163;28;20068;-57
2023/10/31 20:16:19;;;;;;;38.78;22.38;;;16.80;82.80;;;;;;10412276;28;20045;-57
2023/10/31 20:21:20;;;;;;;34.72;21.35;;;16.80;82.70;;;;;;10409807;28;20082;-57
2023/10/31 20:26:21;;;;;;;37.42;21.65;;;16.80;82.80;;;;;;10409950;28;20530;-57
2023/10/31 20:31:23;;;;;;;37.08;21.83;;;16.80;82.80;;;;;;10421772;28;20405;-57
2023/10/31 20:36:23;;;;;;;33.78;22.40;;;16.70;82.70;;;;;;10409757;28;20087;-57
2023/10/31 20:41:24;;;;;;;35.22;20.42;;;16.70;82.70;;;;;;10409031;28;20034;-57
2023/10/31 20:46:25;;;;;;;30.15;20.42;;;16.70;82.70;;;;;;10409675;28;20091;-57
2023/10/31 20:51:26;;;;;;;34.78;19.63;;;16.70;82.70;;;;;;10408987;28;20033;-57
2023/10/31 20:56:27;;;;;;;30.92;19.90;;;16.70;82.70;;;;;;10409331;28;20038;-57
2023/10/31 21:01:31;;;;;;;34.97;20.92;;;16.70;82.60;;;;;;10408484;28;20108;-57
2023/10/31 21:06:35;;;;;;;25.63;17.98;;;16.70;82.60;;;;;;10408963;28;20419;-57
2023/10/31 21:11:36;;;;;;;30.55;18.70;;;16.60;82.50;;;;;;10408514;28;20037;-57
2023/10/31 21:16:36;;;;;;;31.65;17.77;;;16.60;82.50;;;;;;10408906;28;20041;-57
2023/10/31 21:21:37;;;;;;;27.30;17.52;;;16.60;82.40;;;;;;10408214;28;20042;-57
2023/10/31 21:26:38;;;;;;;29.40;17.63;;;16.60;82.40;;;;;;10408716;28;20036;-57
2023/10/31 21:31:39;;;;;;;25.02;17.50;;;16.60;82.40;;;;;;10419284;28;20068;-57
2023/10/31 21:36:40;;;;;;;29.88;19.90;;;16.60;82.40;;;;;;10408598;28;20029;-57
2023/10/31 21:41:45;;;;;;;26.10;16.63;;;16.60;82.40;;;;;;10407839;28;20030;-57
2023/10/31 21:46:47;;;;;;;28.98;17.40;;;16.60;82.40;;;;;;10412667;28;20026;-57
2023/10/31 21:51:48;;;;;;;28.42;16.33;;;16.60;82.40;;;;;;10415527;28;20033;-58
2023/10/31 21:56:49;;;;;;;25.85;18.75;;;16.60;82.40;;;;;;10415828;28;20029;-57
2023/10/31 22:01:51;;;;;;;26.52;16.20;;;16.60;82.40;;;;;;10415376;28;20675;-57
2023/10/31 22:06:51;;;;;;;23.02;15.18;;;16.60;82.40;;;;;;10415589;28;20076;-58
2023/10/31 22:11:52;;;;;;;22.98;16.92;;;16.60;82.40;;;;;;10415019;28;20021;-57
2023/10/31 22:16:53;;;;;;;25.98;15.48;;;16.60;82.40;;;;;;10415285;28;20033;-57
2023/10/31 22:21:53;;;;;;;22.73;15.32;;;16.60;82.40;;;;;;10414566;28;20044;-57
2023/10/31 22:26:54;;;;;;;22.88;14.80;;;16.50;82.30;;;;;;10414916;28;20033;-57
2023/10/31 22:31:55;;;;;;;23.00;15.27;;;16.60;82.30;;;;;;10414330;28;20571;-57
2023/10/31 22:36:56;;;;;;;24.88;14.57;;;16.50;82.80;;;;;;10414442;28;20030;-57
2023/10/31 22:41:57;;;;;;;22.48;14.63;;;16.50;82.30;;;;;;10414045;28;20113;-57
2023/10/31 22:46:58;;;;;;;19.52;12.32;;;16.50;82.20;;;;;;10413375;28;20035;-57
2023/10/31 22:51:58;;;;;;;21.67;13.63;;;16.50;82.80;;;;;;10413538;28;20037;-57
2023/10/31 22:56:59;;;;;;;22.15;14.90;;;16.50;82.10;;;;;;10412425;28;20029;-57
2023/10/31 23:02:00;;;;;;;19.75;13.85;;;16.50;82.10;;;;;;10412973;28;20466;-57
2023/10/31 23:07:00;;;;;;;20.38;13.38;;;16.50;82.10;;;;;;10413355;28;20033;-57
2023/10/31 23:12:02;;;;;;;26.20;16.35;;;16.50;82.20;;;;;;10412648;28;20041;-57
2023/10/31 23:17:02;;;;;;;18.70;12.88;;;16.50;82.20;;;;;;10413151;28;20052;-57
2023/10/31 23:22:03;;;;;;;21.60;13.23;;;16.50;82.20;;;;;;10412182;28;20112;-57
2023/10/31 23:27:04;;;;;;;20.10;13.15;;;16.50;82.10;;;;;;10411167;28;20029;-57
2023/10/31 23:32:05;;;;;;;20.27;12.48;;;16.50;82.10;;;;;;10424541;28;20061;-57
2023/10/31 23:37:06;;;;;;;18.98;12.10;;;16.40;82.00;;;;;;10412009;28;20033;-57
2023/10/31 23:42:07;;;;;;;18.73;13.77;;;16.40;82.00;;;;;;10411455;28;20361;-57
2023/10/31 23:47:07;;;;;;;18.27;11.57;;;16.40;82.00;;;;;;10411714;28;20465;-57
2023/10/31 23:52:09;;;;;;;17.63;12.55;;;16.40;82.00;;;;;;10411445;28;20033;-57
2023/10/31 23:57:09;;;;;;;20.33;12.68;;;16.40;82.00;;;;;;10411485;28;20473;-58
